Terminal Aerodrome Forecast
Issued by NWS Mt. Holly, NJ

Home | Current Version | Previous Version | Text Only | Print | Product List | Glossary On
Versions: 1 2 3 4 5 6 7 8 9 10 11 12 13 14
000
FTUS41 KPHI 252324
TAFABE
TAF
KABE 252324Z 2600/2624 VRB04KT P6SM -SHRA SCT050 BKN100
     FM260200 30003KT P6SM BKN200
     FM260600 VRB02KT 5SM BR SCT100
     FM261500 30007KT P6SM SCT050=

USA.gov is the U.S. government's official web portal to all federal, state and local government web resources and services.